sensor_id;sensor_type;location;lat;lon;timestamp;P1;durP1;ratioP1;P2;durP2;ratioP2
74972;SDS011;63529;56.320;43.990;2023-05-03T00:00:43;11.80;;;6.28;;
74972;SDS011;63529;56.320;43.990;2023-05-03T00:03:08;11.32;;;6.47;;
74972;SDS011;63529;56.320;43.990;2023-05-03T00:05:35;14.75;;;6.03;;
74972;SDS011;63529;56.320;43.990;2023-05-03T00:08:01;10.07;;;5.70;;
74972;SDS011;63529;56.320;43.990;2023-05-03T00:10:28;9.60;;;5.75;;
74972;SDS011;63529;56.320;43.990;2023-05-03T00:12:54;9.10;;;5.07;;
74972;SDS011;63529;56.320;43.990;2023-05-03T00:15:21;7.95;;;4.53;;
74972;SDS011;63529;56.320;43.990;2023-05-03T00:17:47;9.98;;;5.70;;
74972;SDS011;63529;56.320;43.990;2023-05-03T00:20:12;9.60;;;5.32;;
74972;SDS011;63529;56.320;43.990;2023-05-03T00:22:39;12.48;;;5.93;;
74972;SDS011;63529;56.320;43.990;2023-05-03T00:25:08;8.43;;;5.22;;
74972;SDS011;63529;56.320;43.990;2023-05-03T00:27:34;10.88;;;5.28;;
74972;SDS011;63529;56.320;43.990;2023-05-03T00:30:01;10.25;;;5.57;;
74972;SDS011;63529;56.320;43.990;2023-05-03T00:32:30;9.73;;;5.57;;
74972;SDS011;63529;56.320;43.990;2023-05-03T00:34:57;11.63;;;5.85;;
74972;SDS011;63529;56.320;43.990;2023-05-03T00:37:23;13.80;;;5.93;;
74972;SDS011;63529;56.320;43.990;2023-05-03T00:39:50;10.18;;;5.30;;
74972;SDS011;63529;56.320;43.990;2023-05-03T00:42:16;12.43;;;5.70;;
74972;SDS011;63529;56.320;43.990;2023-05-03T00:44:42;9.13;;;4.85;;
74972;SDS011;63529;56.320;43.990;2023-05-03T00:47:08;8.45;;;5.68;;
74972;SDS011;63529;56.320;43.990;2023-05-03T00:49:35;10.02;;;5.35;;
74972;SDS011;63529;56.320;43.990;2023-05-03T00:52:01;10.70;;;5.03;;
74972;SDS011;63529;56.320;43.990;2023-05-03T00:54:28;8.70;;;5.35;;
74972;SDS011;63529;56.320;43.990;2023-05-03T00:56:55;8.70;;;5.10;;
74972;SDS011;63529;56.320;43.990;2023-05-03T00:59:21;7.43;;;4.70;;
74972;SDS011;63529;56.320;43.990;2023-05-03T01:01:48;8.20;;;4.60;;
74972;SDS011;63529;56.320;43.990;2023-05-03T01:04:16;11.93;;;5.38;;
74972;SDS011;63529;56.320;43.990;2023-05-03T01:06:43;10.93;;;5.50;;
74972;SDS011;63529;56.320;43.990;2023-05-03T01:17:11;15.68;;;6.30;;
74972;SDS011;63529;56.320;43.990;2023-05-03T01:19:46;18.02;;;6.10;;
74972;SDS011;63529;56.320;43.990;2023-05-03T01:22:16;11.75;;;6.03;;
74972;SDS011;63529;56.320;43.990;2023-05-03T01:24:46;10.65;;;5.65;;
74972;SDS011;63529;56.320;43.990;2023-05-03T01:27:18;11.10;;;5.57;;
74972;SDS011;63529;56.320;43.990;2023-05-03T01:29:44;10.10;;;6.10;;
74972;SDS011;63529;56.320;43.990;2023-05-03T01:32:13;11.32;;;6.25;;
74972;SDS011;63529;56.320;43.990;2023-05-03T01:37:26;10.63;;;5.53;;
74972;SDS011;63529;56.320;43.990;2023-05-03T01:39:54;9.57;;;5.63;;
74972;SDS011;63529;56.320;43.990;2023-05-03T01:42:24;8.80;;;4.50;;
74972;SDS011;63529;56.320;43.990;2023-05-03T01:44:51;8.07;;;4.95;;
74972;SDS011;63529;56.320;43.990;2023-05-03T01:47:19;7.90;;;4.20;;
74972;SDS011;63529;56.320;43.990;2023-05-03T01:49:45;10.27;;;4.65;;
74972;SDS011;63529;56.320;43.990;2023-05-03T01:52:11;8.55;;;4.40;;
74972;SDS011;63529;56.320;43.990;2023-05-03T01:54:37;6.70;;;3.47;;
74972;SDS011;63529;56.320;43.990;2023-05-03T01:57:03;6.22;;;3.90;;
74972;SDS011;63529;56.320;43.990;2023-05-03T01:59:29;7.10;;;3.70;;
74972;SDS011;63529;56.320;43.990;2023-05-03T02:01:55;7.57;;;3.78;;
74972;SDS011;63529;56.320;43.990;2023-05-03T02:04:21;9.60;;;3.80;;
74972;SDS011;63529;56.320;43.990;2023-05-03T02:06:47;7.35;;;3.88;;
74972;SDS011;63529;56.320;43.990;2023-05-03T02:09:13;5.50;;;3.55;;
74972;SDS011;63529;56.320;43.990;2023-05-03T02:11:39;6.13;;;3.70;;
74972;SDS011;63529;56.320;43.990;2023-05-03T02:14:05;5.95;;;3.42;;
74972;SDS011;63529;56.320;43.990;2023-05-03T02:16:35;9.10;;;3.30;;
74972;SDS011;63529;56.320;43.990;2023-05-03T02:19:01;6.68;;;3.47;;
74972;SDS011;63529;56.320;43.990;2023-05-03T02:21:27;7.93;;;3.72;;
74972;SDS011;63529;56.320;43.990;2023-05-03T02:23:53;6.35;;;4.00;;
74972;SDS011;63529;56.320;43.990;2023-05-03T02:26:21;5.78;;;3.55;;
74972;SDS011;63529;56.320;43.990;2023-05-03T02:28:47;7.70;;;4.43;;
74972;SDS011;63529;56.320;43.990;2023-05-03T02:31:13;8.70;;;3.78;;
74972;SDS011;63529;56.320;43.990;2023-05-03T02:33:41;8.13;;;3.33;;
74972;SDS011;63529;56.320;43.990;2023-05-03T02:36:07;6.20;;;3.60;;
74972;SDS011;63529;56.320;43.990;2023-05-03T02:38:33;5.70;;;3.13;;
74972;SDS011;63529;56.320;43.990;2023-05-03T02:40:59;5.35;;;3.38;;
74972;SDS011;63529;56.320;43.990;2023-05-03T02:43:25;8.77;;;3.45;;
74972;SDS011;63529;56.320;43.990;2023-05-03T02:45:51;6.18;;;2.97;;
74972;SDS011;63529;56.320;43.990;2023-05-03T02:48:17;5.50;;;3.13;;
74972;SDS011;63529;56.320;43.990;2023-05-03T02:50:44;4.80;;;2.90;;
74972;SDS011;63529;56.320;43.990;2023-05-03T02:53:10;5.40;;;2.83;;
74972;SDS011;63529;56.320;43.990;2023-05-03T02:55:36;5.47;;;3.53;;
74972;SDS011;63529;56.320;43.990;2023-05-03T02:58:02;7.15;;;3.63;;
74972;SDS011;63529;56.320;43.990;2023-05-03T03:00:28;6.45;;;3.20;;
74972;SDS011;63529;56.320;43.990;2023-05-03T03:02:54;7.15;;;3.47;;
74972;SDS011;63529;56.320;43.990;2023-05-03T03:05:20;5.72;;;2.90;;
74972;SDS011;63529;56.320;43.990;2023-05-03T03:07:48;5.88;;;3.00;;
74972;SDS011;63529;56.320;43.990;2023-05-03T03:10:16;6.35;;;3.47;;
74972;SDS011;63529;56.320;43.990;2023-05-03T03:12:42;3.22;;;2.58;;
74972;SDS011;63529;56.320;43.990;2023-05-03T03:15:13;5.60;;;2.05;;
74972;SDS011;63529;56.320;43.990;2023-05-03T03:17:39;4.57;;;2.05;;
74972;SDS011;63529;56.320;43.990;2023-05-03T03:20:08;4.22;;;2.00;;
74972;SDS011;63529;56.320;43.990;2023-05-03T03:22:40;5.90;;;2.28;;
74972;SDS011;63529;56.320;43.990;2023-05-03T03:25:09;2.72;;;1.98;;
74972;SDS011;63529;56.320;43.990;2023-05-03T03:27:35;6.90;;;2.70;;
74972;SDS011;63529;56.320;43.990;2023-05-03T03:30:01;11.18;;;2.25;;
74972;SDS011;63529;56.320;43.990;2023-05-03T03:32:31;13.52;;;2.05;;
74972;SDS011;63529;56.320;43.990;2023-05-03T03:34:59;7.97;;;2.70;;
74972;SDS011;63529;56.320;43.990;2023-05-03T03:37:26;13.35;;;2.75;;
74972;SDS011;63529;56.320;43.990;2023-05-03T03:39:52;3.08;;;2.70;;
74972;SDS011;63529;56.320;43.990;2023-05-03T03:42:19;12.45;;;2.90;;
74972;SDS011;63529;56.320;43.990;2023-05-03T03:44:47;8.95;;;2.78;;
74972;SDS011;63529;56.320;43.990;2023-05-03T03:47:12;8.77;;;2.80;;
74972;SDS011;63529;56.320;43.990;2023-05-03T03:49:38;8.50;;;3.20;;
74972;SDS011;63529;56.320;43.990;2023-05-03T03:52:05;6.30;;;2.90;;
74972;SDS011;63529;56.320;43.990;2023-05-03T03:54:32;7.18;;;3.15;;
74972;SDS011;63529;56.320;43.990;2023-05-03T03:57:01;9.65;;;2.83;;
74972;SDS011;63529;56.320;43.990;2023-05-03T03:59:28;20.15;;;4.10;;
74972;SDS011;63529;56.320;43.990;2023-05-03T04:01:57;10.27;;;3.00;;
74972;SDS011;63529;56.320;43.990;2023-05-03T04:04:23;15.60;;;3.80;;
74972;SDS011;63529;56.320;43.990;2023-05-03T04:06:49;14.05;;;4.22;;
74972;SDS011;63529;56.320;43.990;2023-05-03T04:09:16;10.75;;;3.40;;
74972;SDS011;63529;56.320;43.990;2023-05-03T04:11:43;19.50;;;3.65;;
74972;SDS011;63529;56.320;43.990;2023-05-03T04:14:12;15.60;;;3.50;;
74972;SDS011;63529;56.320;43.990;2023-05-03T04:16:39;28.35;;;4.88;;
74972;SDS011;63529;56.320;43.990;2023-05-03T04:19:06;25.27;;;4.32;;
74972;SDS011;63529;56.320;43.990;2023-05-03T04:21:35;11.27;;;2.72;;
74972;SDS011;63529;56.320;43.990;2023-05-03T04:24:02;36.88;;;4.35;;
74972;SDS011;63529;56.320;43.990;2023-05-03T04:26:31;20.00;;;3.53;;
74972;SDS011;63529;56.320;43.990;2023-05-03T04:29:03;40.55;;;4.53;;
74972;SDS011;63529;56.320;43.990;2023-05-03T04:31:29;25.20;;;3.10;;
74972;SDS011;63529;56.320;43.990;2023-05-03T04:33:56;24.88;;;3.10;;
74972;SDS011;63529;56.320;43.990;2023-05-03T04:36:23;17.73;;;3.72;;
74972;SDS011;63529;56.320;43.990;2023-05-03T04:38:55;18.15;;;3.55;;
74972;SDS011;63529;56.320;43.990;2023-05-03T04:41:22;23.98;;;4.10;;
74972;SDS011;63529;56.320;43.990;2023-05-03T04:43:49;27.35;;;4.72;;
74972;SDS011;63529;56.320;43.990;2023-05-03T04:46:16;53.72;;;5.88;;
74972;SDS011;63529;56.320;43.990;2023-05-03T04:48:44;21.35;;;4.00;;
74972;SDS011;63529;56.320;43.990;2023-05-03T04:51:11;13.88;;;2.75;;
74972;SDS011;63529;56.320;43.990;2023-05-03T04:53:38;13.00;;;2.40;;
74972;SDS011;63529;56.320;43.990;2023-05-03T04:56:09;19.42;;;2.75;;
74972;SDS011;63529;56.320;43.990;2023-05-03T04:58:37;27.90;;;4.57;;
74972;SDS011;63529;56.320;43.990;2023-05-03T05:01:05;41.42;;;5.88;;
74972;SDS011;63529;56.320;43.990;2023-05-03T05:03:31;27.88;;;4.30;;
74972;SDS011;63529;56.320;43.990;2023-05-03T05:06:01;22.25;;;4.53;;
74972;SDS011;63529;56.320;43.990;2023-05-03T05:08:27;19.27;;;5.03;;
74972;SDS011;63529;56.320;43.990;2023-05-03T05:10:56;20.77;;;5.28;;
74972;SDS011;63529;56.320;43.990;2023-05-03T05:13:27;11.30;;;4.32;;
74972;SDS011;63529;56.320;43.990;2023-05-03T05:15:54;12.50;;;5.20;;
74972;SDS011;63529;56.320;43.990;2023-05-03T05:18:20;20.63;;;6.35;;
74972;SDS011;63529;56.320;43.990;2023-05-03T05:20:47;27.55;;;7.07;;
74972;SDS011;63529;56.320;43.990;2023-05-03T05:23:13;18.38;;;5.80;;
74972;SDS011;63529;56.320;43.990;2023-05-03T05:25:42;26.73;;;6.45;;
74972;SDS011;63529;56.320;43.990;2023-05-03T05:28:08;27.27;;;6.95;;
74972;SDS011;63529;56.320;43.990;2023-05-03T05:30:36;18.35;;;6.05;;
74972;SDS011;63529;56.320;43.990;2023-05-03T05:33:01;21.67;;;5.80;;
74972;SDS011;63529;56.320;43.990;2023-05-03T05:35:28;132.57;;;13.85;;
74972;SDS011;63529;56.320;43.990;2023-05-03T05:37:54;47.25;;;7.65;;
74972;SDS011;63529;56.320;43.990;2023-05-03T05:40:21;11.35;;;4.28;;
74972;SDS011;63529;56.320;43.990;2023-05-03T05:42:53;68.65;;;7.95;;
74972;SDS011;63529;56.320;43.990;2023-05-03T05:45:21;59.63;;;7.43;;
74972;SDS011;63529;56.320;43.990;2023-05-03T05:47:49;9.30;;;3.45;;
74972;SDS011;63529;56.320;43.990;2023-05-03T05:50:16;21.77;;;3.90;;
74972;SDS011;63529;56.320;43.990;2023-05-03T05:52:42;15.30;;;3.60;;
74972;SDS011;63529;56.320;43.990;2023-05-03T05:55:09;31.67;;;5.13;;
74972;SDS011;63529;56.320;43.990;2023-05-03T05:57:39;15.52;;;3.92;;
74972;SDS011;63529;56.320;43.990;2023-05-03T06:00:05;21.17;;;5.05;;
74972;SDS011;63529;56.320;43.990;2023-05-03T06:02:40;27.98;;;4.88;;
74972;SDS011;63529;56.320;43.990;2023-05-03T06:05:10;8.07;;;3.90;;
74972;SDS011;63529;56.320;43.990;2023-05-03T06:07:36;27.63;;;5.40;;
74972;SDS011;63529;56.320;43.990;2023-05-03T06:10:02;10.07;;;3.42;;
74972;SDS011;63529;56.320;43.990;2023-05-03T06:14:56;14.63;;;2.95;;
74972;SDS011;63529;56.320;43.990;2023-05-03T06:17:22;11.40;;;2.70;;
74972;SDS011;63529;56.320;43.990;2023-05-03T06:22:17;17.33;;;3.47;;
74972;SDS011;63529;56.320;43.990;2023-05-03T06:24:43;14.10;;;3.45;;
74972;SDS011;63529;56.320;43.990;2023-05-03T06:27:09;19.77;;;2.90;;
74972;SDS011;63529;56.320;43.990;2023-05-03T06:29:35;27.73;;;5.13;;
74972;SDS011;63529;56.320;43.990;2023-05-03T06:32:01;7.07;;;2.58;;
74972;SDS011;63529;56.320;43.990;2023-05-03T06:34:28;7.53;;;2.00;;
74972;SDS011;63529;56.320;43.990;2023-05-03T06:36:54;10.60;;;1.52;;
74972;SDS011;63529;56.320;43.990;2023-05-03T06:39:21;14.50;;;2.22;;
74972;SDS011;63529;56.320;43.990;2023-05-03T06:41:47;18.52;;;2.60;;
74972;SDS011;63529;56.320;43.990;2023-05-03T06:44:13;30.10;;;3.42;;
74972;SDS011;63529;56.320;43.990;2023-05-03T06:46:39;14.02;;;2.38;;
74972;SDS011;63529;56.320;43.990;2023-05-03T06:49:06;11.98;;;2.22;;
74972;SDS011;63529;56.320;43.990;2023-05-03T06:51:32;13.38;;;2.20;;
74972;SDS011;63529;56.320;43.990;2023-05-03T06:53:59;11.70;;;1.65;;
74972;SDS011;63529;56.320;43.990;2023-05-03T06:56:31;5.97;;;1.65;;
74972;SDS011;63529;56.320;43.990;2023-05-03T06:58:58;10.20;;;1.70;;
74972;SDS011;63529;56.320;43.990;2023-05-03T07:01:25;8.27;;;1.65;;
74972;SDS011;63529;56.320;43.990;2023-05-03T07:03:52;14.43;;;2.38;;
74972;SDS011;63529;56.320;43.990;2023-05-03T07:06:18;8.60;;;1.75;;
74972;SDS011;63529;56.320;43.990;2023-05-03T07:08:48;13.65;;;1.80;;
74972;SDS011;63529;56.320;43.990;2023-05-03T07:11:15;8.57;;;1.85;;
74972;SDS011;63529;56.320;43.990;2023-05-03T07:13:41;7.28;;;1.55;;
74972;SDS011;63529;56.320;43.990;2023-05-03T07:16:07;4.28;;;1.42;;
74972;SDS011;63529;56.320;43.990;2023-05-03T07:18:33;11.57;;;1.52;;
74972;SDS011;63529;56.320;43.990;2023-05-03T07:20:59;5.60;;;1.38;;
74972;SDS011;63529;56.320;43.990;2023-05-03T07:23:30;6.55;;;1.30;;
74972;SDS011;63529;56.320;43.990;2023-05-03T07:25:56;6.10;;;1.60;;
74972;SDS011;63529;56.320;43.990;2023-05-03T07:28:22;8.13;;;1.50;;
74972;SDS011;63529;56.320;43.990;2023-05-03T07:30:50;3.08;;;1.38;;
74972;SDS011;63529;56.320;43.990;2023-05-03T07:33:17;13.18;;;1.80;;
74972;SDS011;63529;56.320;43.990;2023-05-03T07:35:46;6.35;;;1.35;;
74972;SDS011;63529;56.320;43.990;2023-05-03T07:38:12;3.45;;;1.20;;
74972;SDS011;63529;56.320;43.990;2023-05-03T07:40:39;7.82;;;1.27;;
74972;SDS011;63529;56.320;43.990;2023-05-03T07:43:08;9.13;;;1.70;;
74972;SDS011;63529;56.320;43.990;2023-05-03T07:45:37;37.13;;;5.07;;
74972;SDS011;63529;56.320;43.990;2023-05-03T07:48:03;11.27;;;2.15;;
74972;SDS011;63529;56.320;43.990;2023-05-03T07:50:30;4.45;;;1.40;;
74972;SDS011;63529;56.320;43.990;2023-05-03T07:52:56;12.02;;;2.10;;
74972;SDS011;63529;56.320;43.990;2023-05-03T07:55:22;18.45;;;2.90;;
74972;SDS011;63529;56.320;43.990;2023-05-03T07:57:49;11.38;;;2.50;;
74972;SDS011;63529;56.320;43.990;2023-05-03T08:00:16;9.32;;;2.25;;
74972;SDS011;63529;56.320;43.990;2023-05-03T08:02:43;9.70;;;1.75;;
74972;SDS011;63529;56.320;43.990;2023-05-03T08:05:09;7.72;;;1.60;;
74972;SDS011;63529;56.320;43.990;2023-05-03T08:07:39;7.30;;;1.50;;
74972;SDS011;63529;56.320;43.990;2023-05-03T08:10:06;12.73;;;2.47;;
74972;SDS011;63529;56.320;43.990;2023-05-03T08:12:33;20.42;;;2.53;;
74972;SDS011;63529;56.320;43.990;2023-05-03T08:14:58;7.10;;;1.60;;
74972;SDS011;63529;56.320;43.990;2023-05-03T08:17:25;17.85;;;2.00;;
74972;SDS011;63529;56.320;43.990;2023-05-03T08:19:53;8.82;;;1.60;;
74972;SDS011;63529;56.320;43.990;2023-05-03T08:22:20;10.15;;;2.00;;
74972;SDS011;63529;56.320;43.990;2023-05-03T08:25:23;7.63;;;1.75;;
74972;SDS011;63529;56.320;43.990;2023-05-03T08:27:51;8.85;;;1.50;;
74972;SDS011;63529;56.320;43.990;2023-05-03T08:30:17;16.10;;;2.00;;
74972;SDS011;63529;56.320;43.990;2023-05-03T08:32:44;32.85;;;4.60;;
74972;SDS011;63529;56.320;43.990;2023-05-03T08:37:56;6.53;;;1.60;;
74972;SDS011;63529;56.320;43.990;2023-05-03T08:40:22;16.95;;;2.53;;
74972;SDS011;63529;56.320;43.990;2023-05-03T08:42:51;6.32;;;1.70;;
74972;SDS011;63529;56.320;43.990;2023-05-03T08:45:19;7.68;;;1.70;;
74972;SDS011;63529;56.320;43.990;2023-05-03T08:47:51;6.63;;;1.80;;
74972;SDS011;63529;56.320;43.990;2023-05-03T08:50:18;9.93;;;1.95;;
74972;SDS011;63529;56.320;43.990;2023-05-03T08:52:45;6.30;;;1.40;;
74972;SDS011;63529;56.320;43.990;2023-05-03T08:55:12;4.78;;;1.77;;
74972;SDS011;63529;56.320;43.990;2023-05-03T08:57:38;14.63;;;2.25;;
74972;SDS011;63529;56.320;43.990;2023-05-03T09:00:04;8.68;;;1.65;;
74972;SDS011;63529;56.320;43.990;2023-05-03T09:02:35;25.95;;;13.07;;
74972;SDS011;63529;56.320;43.990;2023-05-03T09:07:41;10.50;;;1.85;;
74972;SDS011;63529;56.320;43.990;2023-05-03T09:10:26;6.85;;;1.95;;
74972;SDS011;63529;56.320;43.990;2023-05-03T09:12:56;4.03;;;1.58;;
74972;SDS011;63529;56.320;43.990;2023-05-03T09:15:25;8.60;;;1.80;;
74972;SDS011;63529;56.320;43.990;2023-05-03T09:20:41;12.23;;;2.72;;
74972;SDS011;63529;56.320;43.990;2023-05-03T09:23:16;4.95;;;1.40;;
74972;SDS011;63529;56.320;43.990;2023-05-03T09:26:04;6.13;;;1.67;;
74972;SDS011;63529;56.320;43.990;2023-05-03T09:28:39;5.55;;;1.77;;
74972;SDS011;63529;56.320;43.990;2023-05-03T09:31:06;4.82;;;1.58;;
74972;SDS011;63529;56.320;43.990;2023-05-03T09:33:35;4.57;;;1.38;;
74972;SDS011;63529;56.320;43.990;2023-05-03T09:36:02;7.95;;;1.42;;
74972;SDS011;63529;56.320;43.990;2023-05-03T09:38:30;12.23;;;1.90;;
74972;SDS011;63529;56.320;43.990;2023-05-03T09:40:58;21.42;;;1.92;;
74972;SDS011;63529;56.320;43.990;2023-05-03T09:43:34;5.03;;;1.50;;
74972;SDS011;63529;56.320;43.990;2023-05-03T09:46:12;33.13;;;4.20;;
74972;SDS011;63529;56.320;43.990;2023-05-03T09:48:38;8.88;;;1.55;;
74972;SDS011;63529;56.320;43.990;2023-05-03T09:51:05;6.65;;;1.38;;
74972;SDS011;63529;56.320;43.990;2023-05-03T09:53:34;10.07;;;1.98;;
74972;SDS011;63529;56.320;43.990;2023-05-03T09:56:02;6.15;;;1.20;;
74972;SDS011;63529;56.320;43.990;2023-05-03T09:58:31;5.40;;;1.33;;
74972;SDS011;63529;56.320;43.990;2023-05-03T10:00:59;5.95;;;1.15;;
74972;SDS011;63529;56.320;43.990;2023-05-03T10:09:02;11.15;;;1.58;;
74972;SDS011;63529;56.320;43.990;2023-05-03T10:11:38;5.22;;;1.80;;
74972;SDS011;63529;56.320;43.990;2023-05-03T10:14:11;9.82;;;1.92;;
74972;SDS011;63529;56.320;43.990;2023-05-03T10:16:38;8.43;;;1.80;;
74972;SDS011;63529;56.320;43.990;2023-05-03T10:19:33;5.18;;;1.30;;
74972;SDS011;63529;56.320;43.990;2023-05-03T10:22:01;13.63;;;2.03;;
74972;SDS011;63529;56.320;43.990;2023-05-03T10:24:30;2.17;;;1.00;;
74972;SDS011;63529;56.320;43.990;2023-05-03T10:26:57;7.95;;;1.70;;
74972;SDS011;63529;56.320;43.990;2023-05-03T10:32:02;8.75;;;1.65;;
74972;SDS011;63529;56.320;43.990;2023-05-03T10:34:33;1.90;;;1.00;;
74972;SDS011;63529;56.320;43.990;2023-05-03T10:37:00;8.68;;;1.50;;
74972;SDS011;63529;56.320;43.990;2023-05-03T10:39:28;6.03;;;1.30;;
74972;SDS011;63529;56.320;43.990;2023-05-03T10:41:58;9.98;;;1.63;;
74972;SDS011;63529;56.320;43.990;2023-05-03T10:44:32;16.58;;;2.97;;
74972;SDS011;63529;56.320;43.990;2023-05-03T10:47:09;11.88;;;2.20;;
74972;SDS011;63529;56.320;43.990;2023-05-03T10:49:37;6.00;;;1.75;;
74972;SDS011;63529;56.320;43.990;2023-05-03T10:52:11;7.65;;;1.70;;
74972;SDS011;63529;56.320;43.990;2023-05-03T10:55:07;7.18;;;1.30;;
74972;SDS011;63529;56.320;43.990;2023-05-03T10:57:38;8.50;;;1.45;;
74972;SDS011;63529;56.320;43.990;2023-05-03T11:00:10;5.57;;;1.20;;
74972;SDS011;63529;56.320;43.990;2023-05-03T11:02:39;11.57;;;1.95;;
74972;SDS011;63529;56.320;43.990;2023-05-03T11:05:18;6.13;;;1.25;;
74972;SDS011;63529;56.320;43.990;2023-05-03T11:07:44;13.40;;;1.75;;
74972;SDS011;63529;56.320;43.990;2023-05-03T11:10:17;10.45;;;1.70;;
74972;SDS011;63529;56.320;43.990;2023-05-03T11:12:44;4.03;;;1.58;;
74972;SDS011;63529;56.320;43.990;2023-05-03T11:15:10;13.13;;;1.90;;
74972;SDS011;63529;56.320;43.990;2023-05-03T11:17:37;6.57;;;1.20;;
74972;SDS011;63529;56.320;43.990;2023-05-03T11:20:06;9.57;;;1.63;;
74972;SDS011;63529;56.320;43.990;2023-05-03T11:22:35;5.72;;;1.20;;
74972;SDS011;63529;56.320;43.990;2023-05-03T11:25:02;2.47;;;1.30;;
74972;SDS011;63529;56.320;43.990;2023-05-03T11:27:29;3.28;;;1.20;;
74972;SDS011;63529;56.320;43.990;2023-05-03T11:29:55;6.47;;;1.60;;
74972;SDS011;63529;56.320;43.990;2023-05-03T11:32:27;11.93;;;2.42;;
74972;SDS011;63529;56.320;43.990;2023-05-03T11:34:54;7.55;;;2.00;;
74972;SDS011;63529;56.320;43.990;2023-05-03T11:37:20;5.47;;;1.23;;
74972;SDS011;63529;56.320;43.990;2023-05-03T11:39:46;12.68;;;2.38;;
74972;SDS011;63529;56.320;43.990;2023-05-03T11:42:12;6.60;;;1.92;;
74972;SDS011;63529;56.320;43.990;2023-05-03T11:44:38;15.68;;;2.30;;
74972;SDS011;63529;56.320;43.990;2023-05-03T11:47:04;17.05;;;2.42;;
74972;SDS011;63529;56.320;43.990;2023-05-03T11:49:30;6.40;;;1.55;;
74972;SDS011;63529;56.320;43.990;2023-05-03T11:51:56;8.93;;;1.40;;
74972;SDS011;63529;56.320;43.990;2023-05-03T11:54:22;12.07;;;2.10;;
74972;SDS011;63529;56.320;43.990;2023-05-03T11:56:49;8.25;;;1.52;;
74972;SDS011;63529;56.320;43.990;2023-05-03T11:59:16;6.28;;;1.45;;
74972;SDS011;63529;56.320;43.990;2023-05-03T12:01:43;3.50;;;1.30;;
74972;SDS011;63529;56.320;43.990;2023-05-03T12:06:39;10.55;;;2.08;;
74972;SDS011;63529;56.320;43.990;2023-05-03T12:09:23;3.10;;;1.10;;
74972;SDS011;63529;56.320;43.990;2023-05-03T12:11:50;6.50;;;1.50;;
74972;SDS011;63529;56.320;43.990;2023-05-03T12:14:16;5.70;;;1.40;;
74972;SDS011;63529;56.320;43.990;2023-05-03T12:16:46;12.75;;;2.22;;
74972;SDS011;63529;56.320;43.990;2023-05-03T12:19:27;5.07;;;1.50;;
74972;SDS011;63529;56.320;43.990;2023-05-03T12:21:54;6.05;;;1.27;;
74972;SDS011;63529;56.320;43.990;2023-05-03T12:24:20;8.27;;;1.60;;
74972;SDS011;63529;56.320;43.990;2023-05-03T12:26:50;19.15;;;2.78;;
74972;SDS011;63529;56.320;43.990;2023-05-03T12:29:16;8.52;;;1.40;;
74972;SDS011;63529;56.320;43.990;2023-05-03T12:31:44;5.72;;;1.67;;
74972;SDS011;63529;56.320;43.990;2023-05-03T12:34:10;7.35;;;1.55;;
74972;SDS011;63529;56.320;43.990;2023-05-03T12:36:37;10.40;;;2.15;;
74972;SDS011;63529;56.320;43.990;2023-05-03T12:39:03;6.10;;;1.65;;
74972;SDS011;63529;56.320;43.990;2023-05-03T12:41:29;13.98;;;1.98;;
74972;SDS011;63529;56.320;43.990;2023-05-03T12:43:57;27.63;;;2.92;;
74972;SDS011;63529;56.320;43.990;2023-05-03T12:46:23;17.65;;;2.25;;
74972;SDS011;63529;56.320;43.990;2023-05-03T12:48:51;10.95;;;1.60;;
74972;SDS011;63529;56.320;43.990;2023-05-03T12:51:17;12.45;;;2.30;;
74972;SDS011;63529;56.320;43.990;2023-05-03T12:53:44;5.63;;;1.42;;
74972;SDS011;63529;56.320;43.990;2023-05-03T12:56:11;11.23;;;2.13;;
74972;SDS011;63529;56.320;43.990;2023-05-03T12:58:38;10.77;;;1.60;;
74972;SDS011;63529;56.320;43.990;2023-05-03T13:01:06;8.23;;;1.67;;
74972;SDS011;63529;56.320;43.990;2023-05-03T13:03:33;13.60;;;1.98;;
74972;SDS011;63529;56.320;43.990;2023-05-03T13:06:00;10.38;;;1.60;;
74972;SDS011;63529;56.320;43.990;2023-05-03T13:08:29;11.88;;;2.20;;
74972;SDS011;63529;56.320;43.990;2023-05-03T13:10:56;9.18;;;1.50;;
74972;SDS011;63529;56.320;43.990;2023-05-03T13:13:21;9.55;;;1.80;;
74972;SDS011;63529;56.320;43.990;2023-05-03T13:15:49;4.55;;;1.48;;
74972;SDS011;63529;56.320;43.990;2023-05-03T13:20:44;7.00;;;2.25;;
74972;SDS011;63529;56.320;43.990;2023-05-03T13:23:10;20.70;;;3.30;;
74972;SDS011;63529;56.320;43.990;2023-05-03T13:25:36;12.57;;;2.05;;
74972;SDS011;63529;56.320;43.990;2023-05-03T13:28:04;6.53;;;1.63;;
74972;SDS011;63529;56.320;43.990;2023-05-03T13:30:30;4.22;;;1.60;;
74972;SDS011;63529;56.320;43.990;2023-05-03T13:32:56;15.18;;;2.30;;
74972;SDS011;63529;56.320;43.990;2023-05-03T13:35:22;9.48;;;1.90;;
74972;SDS011;63529;56.320;43.990;2023-05-03T13:37:48;6.72;;;2.05;;
74972;SDS011;63529;56.320;43.990;2023-05-03T13:40:14;9.68;;;2.40;;
74972;SDS011;63529;56.320;43.990;2023-05-03T13:42:40;13.80;;;2.15;;
74972;SDS011;63529;56.320;43.990;2023-05-03T13:45:06;9.13;;;1.80;;
74972;SDS011;63529;56.320;43.990;2023-05-03T13:47:33;11.40;;;2.58;;
74972;SDS011;63529;56.320;43.990;2023-05-03T13:49:59;11.18;;;2.60;;
74972;SDS011;63529;56.320;43.990;2023-05-03T13:52:26;13.07;;;2.25;;
74972;SDS011;63529;56.320;43.990;2023-05-03T13:55:01;17.73;;;2.38;;
74972;SDS011;63529;56.320;43.990;2023-05-03T13:57:29;10.95;;;1.90;;
74972;SDS011;63529;56.320;43.990;2023-05-03T13:59:55;15.85;;;2.35;;
74972;SDS011;63529;56.320;43.990;2023-05-03T14:02:21;21.10;;;2.83;;
74972;SDS011;63529;56.320;43.990;2023-05-03T14:04:47;15.88;;;2.40;;
74972;SDS011;63529;56.320;43.990;2023-05-03T14:07:14;10.43;;;2.85;;
74972;SDS011;63529;56.320;43.990;2023-05-03T14:09:40;12.52;;;2.15;;
74972;SDS011;63529;56.320;43.990;2023-05-03T14:12:06;10.38;;;2.22;;
74972;SDS011;63529;56.320;43.990;2023-05-03T14:14:32;12.20;;;1.80;;
74972;SDS011;63529;56.320;43.990;2023-05-03T14:16:58;8.93;;;3.60;;
74972;SDS011;63529;56.320;43.990;2023-05-03T14:19:25;7.72;;;1.70;;
74972;SDS011;63529;56.320;43.990;2023-05-03T14:21:51;7.68;;;2.00;;
74972;SDS011;63529;56.320;43.990;2023-05-03T14:24:23;4.72;;;1.77;;
74972;SDS011;63529;56.320;43.990;2023-05-03T14:26:50;16.85;;;3.17;;
74972;SDS011;63529;56.320;43.990;2023-05-03T14:29:16;9.80;;;2.22;;
74972;SDS011;63529;56.320;43.990;2023-05-03T14:31:42;15.07;;;3.42;;
74972;SDS011;63529;56.320;43.990;2023-05-03T14:34:08;26.95;;;3.55;;
74972;SDS011;63529;56.320;43.990;2023-05-03T14:36:34;15.10;;;2.85;;
74972;SDS011;63529;56.320;43.990;2023-05-03T14:39:01;11.65;;;2.58;;
74972;SDS011;63529;56.320;43.990;2023-05-03T14:41:28;10.55;;;2.50;;
74972;SDS011;63529;56.320;43.990;2023-05-03T14:43:56;10.90;;;2.03;;
74972;SDS011;63529;56.320;43.990;2023-05-03T14:46:22;18.17;;;2.90;;
74972;SDS011;63529;56.320;43.990;2023-05-03T14:48:48;11.68;;;2.90;;
74972;SDS011;63529;56.320;43.990;2023-05-03T14:51:14;10.13;;;3.08;;
74972;SDS011;63529;56.320;43.990;2023-05-03T14:53:40;19.42;;;2.78;;
74972;SDS011;63529;56.320;43.990;2023-05-03T14:56:06;8.13;;;2.00;;
74972;SDS011;63529;56.320;43.990;2023-05-03T14:58:32;20.95;;;3.38;;
74972;SDS011;63529;56.320;43.990;2023-05-03T15:00:58;10.02;;;2.60;;
74972;SDS011;63529;56.320;43.990;2023-05-03T15:03:24;11.23;;;2.17;;
74972;SDS011;63529;56.320;43.990;2023-05-03T15:05:50;9.00;;;2.30;;
74972;SDS011;63529;56.320;43.990;2023-05-03T15:08:17;15.13;;;2.53;;